createdAt,value
2019-05-18T00:01:27.733Z,12.40
2019-05-18T00:03:56.817Z,12.50
2019-05-18T00:06:25.915Z,12.50
2019-05-18T00:08:57.054Z,12.50
2019-05-18T00:11:26.457Z,12.40
2019-05-18T00:13:55.524Z,12.30
2019-05-18T00:16:24.619Z,12.20
2019-05-18T00:18:54.078Z,12.20
2019-05-18T00:21:23.154Z,12.10
2019-05-18T00:23:53.141Z,12.10
2019-05-18T00:26:22.573Z,12.00
2019-05-18T00:28:51.800Z,12.00
2019-05-18T00:31:26.901Z,11.90
2019-05-18T00:33:56.324Z,11.90
2019-05-18T00:36:25.669Z,11.90
2019-05-18T00:38:54.833Z,11.90
2019-05-18T00:41:25.966Z,11.90
2019-05-18T00:44:04.615Z,11.90
2019-05-18T00:46:34.614Z,11.90
2019-05-18T00:49:15.800Z,11.80
2019-05-18T00:51:45.380Z,11.70
2019-05-18T00:54:28.798Z,11.70
2019-05-18T00:57:03.977Z,11.60
2019-05-18T00:59:36.879Z,11.70
2019-05-18T01:02:09.097Z,11.70
2019-05-18T01:04:47.605Z,11.60
2019-05-18T01:07:49.202Z,11.50
2019-05-18T01:10:30.787Z,11.30
2019-05-18T01:13:06.829Z,11.20
2019-05-18T01:15:45.244Z,11.10
2019-05-18T01:18:25.627Z,11.10
2019-05-18T01:20:54.787Z,11.20
2019-05-18T01:23:28.415Z,11.30
2019-05-18T01:26:13.054Z,11.30
2019-05-18T01:28:48.132Z,11.40
2019-05-18T01:31:17.367Z,11.40
2019-05-18T01:33:47.154Z,11.40
2019-05-18T01:36:16.760Z,11.30
2019-05-18T01:38:56.257Z,11.30
2019-05-18T01:41:27.395Z,11.20
2019-05-18T01:44:31.936Z,11.20
2019-05-18T01:47:04.305Z,11.10
2019-05-18T01:49:45.966Z,11.00
2019-05-18T01:52:20.206Z,11.10
2019-05-18T01:54:53.637Z,11.10
2019-05-18T01:57:22.841Z,11.00
2019-05-18T01:59:52.015Z,10.90
2019-05-18T02:08:57.910Z,10.90
2019-05-18T02:12:20.862Z,10.90
2019-05-18T02:18:31.359Z,10.80
2019-05-18T02:24:41.975Z,10.70
2019-05-18T02:30:52.402Z,10.70
2019-05-18T02:37:02.823Z,10.60
2019-05-18T02:43:13.730Z,10.60
2019-05-18T02:46:36.641Z,10.50
2019-05-18T02:52:48.599Z,10.40
2019-05-18T02:56:11.474Z,10.30
2019-05-18T03:02:21.811Z,10.20
2019-05-18T03:05:05.454Z,10.00
2019-05-18T03:07:35.400Z,10.10
2019-05-18T03:10:09.084Z,10.10
2019-05-18T03:12:47.899Z,10.00
2019-05-18T03:21:35.429Z,10.10
2019-05-18T03:24:58.842Z,10.00
2019-05-18T03:31:09.769Z,10.00
2019-05-18T03:37:20.042Z,10.00
2019-05-18T03:43:30.246Z,9.90
2019-05-18T03:49:40.659Z,9.60
2019-05-18T03:53:03.909Z,9.70
2019-05-18T03:59:14.174Z,9.80
2019-05-18T04:02:37.469Z,9.80
2019-05-18T04:08:47.960Z,9.90
2019-05-18T04:14:59.069Z,9.80
2019-05-18T04:17:35.574Z,9.70
2019-05-18T04:20:10.865Z,9.70
2019-05-18T04:22:40.029Z,9.70
2019-05-18T04:25:15.303Z,9.80
2019-05-18T04:27:44.741Z,9.90
2019-05-18T04:30:13.890Z,10.00
2019-05-18T04:32:50.060Z,10.00
2019-05-18T04:35:19.224Z,10.10
2019-05-18T04:38:00.583Z,10.20
2019-05-18T04:40:38.060Z,10.30
2019-05-18T04:43:08.290Z,10.30
2019-05-18T04:45:37.419Z,10.30
2019-05-18T04:48:07.642Z,10.40
2019-05-18T04:50:39.834Z,10.50
2019-05-18T04:53:09.932Z,10.50
2019-05-18T04:55:39.044Z,10.60
2019-05-18T04:58:17.625Z,10.70
2019-05-18T05:00:52.906Z,10.80
2019-05-18T05:03:28.312Z,10.90
2019-05-18T05:06:06.651Z,10.90
2019-05-18T05:08:41.879Z,11.00
2019-05-18T05:11:17.514Z,11.10
2019-05-18T05:13:54.787Z,11.20
2019-05-18T05:16:30.366Z,11.30
2019-05-18T05:19:04.186Z,11.30
2019-05-18T05:21:33.564Z,11.50
2019-05-18T05:24:11.884Z,11.60
2019-05-18T05:26:43.568Z,11.80
2019-05-18T05:29:21.127Z,11.90
2019-05-18T05:31:58.318Z,12.00
2019-05-18T05:34:29.655Z,12.10
2019-05-18T05:37:06.038Z,12.10
2019-05-18T05:39:50.239Z,12.20
2019-05-18T05:42:19.427Z,12.20
2019-05-18T05:44:48.903Z,12.30
2019-05-18T05:47:20.358Z,12.40
2019-05-18T05:49:52.032Z,12.50
2019-05-18T05:52:27.248Z,12.50
2019-05-18T05:54:56.339Z,12.60
2019-05-18T05:57:35.763Z,12.60
2019-05-18T06:00:06.102Z,12.70
2019-05-18T06:02:47.298Z,12.70
2019-05-18T06:05:16.495Z,12.90
2019-05-18T06:07:47.037Z,13.10
2019-05-18T06:10:16.426Z,13.30
2019-05-18T06:12:45.774Z,13.50
2019-05-18T06:15:15.833Z,13.80
2019-05-18T06:17:44.945Z,14.20
2019-05-18T06:20:14.516Z,14.70
2019-05-18T06:22:46.736Z,15.30
2019-05-18T06:25:16.328Z,16.10
2019-05-18T06:27:45.848Z,16.80
2019-05-18T06:30:17.577Z,17.60
2019-05-18T06:32:46.662Z,18.30
2019-05-18T06:35:16.203Z,18.90
2019-05-18T06:37:45.351Z,19.40
2019-05-18T06:40:14.522Z,19.70
2019-05-18T06:42:43.679Z,20.10
2019-05-18T06:45:13.048Z,20.30
2019-05-18T06:47:42.163Z,20.50
2019-05-18T06:50:13.212Z,20.90
2019-05-18T06:52:42.559Z,21.00
2019-05-18T06:55:13.100Z,20.90
2019-05-18T06:57:42.881Z,21.10
2019-05-18T07:00:14.323Z,21.30
2019-05-18T07:02:45.947Z,21.60
2019-05-18T07:05:15.037Z,21.90
2019-05-18T07:07:44.864Z,22.00
2019-05-18T07:10:13.948Z,22.10
2019-05-18T07:12:43.390Z,21.80
2019-05-18T07:15:13.580Z,21.60
2019-05-18T07:17:43.322Z,21.50
2019-05-18T07:20:12.895Z,21.60
2019-05-18T07:22:42.305Z,22.00
2019-05-18T07:25:12.718Z,22.50
2019-05-18T07:27:41.968Z,23.00
2019-05-18T07:30:15.341Z,23.40
2019-05-18T07:32:45.036Z,24.00
2019-05-18T07:35:14.852Z,24.70
2019-05-18T07:37:43.976Z,24.80
2019-05-18T07:40:13.430Z,24.60
2019-05-18T07:42:42.631Z,24.80
2019-05-18T07:45:12.565Z,25.10
2019-05-18T07:47:41.858Z,25.50
2019-05-18T07:50:11.385Z,25.40
2019-05-18T07:52:40.487Z,25.10
2019-05-18T07:55:13.339Z,24.90
2019-05-18T07:57:42.740Z,24.40
2019-05-18T08:00:12.288Z,24.10
2019-05-18T08:02:41.375Z,23.40
2019-05-18T08:05:11.282Z,23.00
2019-05-18T08:07:40.347Z,22.40
2019-05-18T08:10:10.228Z,22.20
2019-05-18T08:12:39.976Z,22.30
2019-05-18T08:15:10.686Z,22.40
2019-05-18T08:17:40.099Z,22.40
2019-05-18T08:20:09.404Z,22.20
2019-05-18T08:22:38.492Z,22.30
2019-05-18T08:25:08.231Z,22.20
2019-05-18T08:27:37.286Z,21.90
2019-05-18T08:30:07.411Z,21.70
2019-05-18T08:32:38.458Z,21.90
2019-05-18T08:35:08.511Z,22.20
2019-05-18T08:37:38.046Z,22.50
2019-05-18T08:40:07.811Z,22.80
2019-05-18T08:42:36.988Z,23.10
2019-05-18T08:45:06.299Z,23.20
2019-05-18T08:47:36.109Z,23.40
2019-05-18T08:50:05.336Z,23.60
2019-05-18T08:52:35.153Z,23.80
2019-05-18T08:55:06.088Z,24.00
2019-05-18T08:57:35.199Z,24.00
2019-05-18T09:00:04.909Z,23.90
2019-05-18T09:02:34.428Z,23.90
2019-05-18T09:05:04.985Z,24.00
2019-05-18T09:07:34.740Z,23.90
2019-05-18T09:10:03.884Z,23.80
2019-05-18T09:12:33.243Z,23.80
2019-05-18T09:15:02.339Z,24.00
2019-05-18T09:17:31.414Z,24.20
2019-05-18T09:20:00.528Z,24.20
2019-05-18T09:22:29.914Z,24.20
2019-05-18T09:24:58.986Z,24.00
2019-05-18T09:27:28.455Z,23.60
2019-05-18T09:29:58.510Z,23.40
2019-05-18T09:32:28.244Z,23.30
2019-05-18T09:34:57.460Z,23.20
2019-05-18T09:37:26.517Z,23.40
2019-05-18T09:39:55.960Z,23.70
2019-05-18T09:42:25.347Z,23.60
2019-05-18T09:44:54.816Z,23.50
2019-05-18T09:47:23.900Z,23.50
2019-05-18T09:49:53.127Z,23.80
2019-05-18T09:52:22.185Z,24.10
2019-05-18T09:54:51.632Z,24.20
2019-05-18T09:57:20.737Z,24.20
2019-05-18T09:59:49.837Z,24.40
2019-05-18T10:02:18.912Z,24.60
2019-05-18T10:04:48.352Z,24.80
2019-05-18T10:07:17.488Z,24.90
2019-05-18T10:09:46.576Z,25.00
2019-05-18T10:12:16.755Z,24.90
2019-05-18T10:14:46.477Z,25.00
2019-05-18T10:17:16.430Z,25.10
2019-05-18T10:19:45.668Z,25.20
2019-05-18T10:22:15.400Z,25.30
2019-05-18T10:24:45.143Z,25.40
2019-05-18T10:27:15.094Z,25.50
2019-05-18T10:29:46.690Z,25.60
2019-05-18T10:32:15.060Z,25.50
2019-05-18T10:34:44.218Z,25.50
2019-05-18T10:37:13.691Z,25.50
2019-05-18T10:39:49.007Z,25.60
2019-05-18T10:42:18.135Z,25.70
2019-05-18T10:44:47.550Z,25.80
2019-05-18T10:47:16.714Z,25.80
2019-05-18T10:49:45.903Z,25.90
2019-05-18T10:52:15.636Z,26.00
2019-05-18T10:54:44.826Z,26.00
2019-05-18T10:57:14.040Z,25.80
2019-05-18T10:59:43.595Z,25.70
2019-05-18T11:02:13.021Z,25.60
2019-05-18T11:04:42.892Z,25.80
2019-05-18T11:07:12.365Z,26.00
2019-05-18T11:09:41.452Z,26.10
2019-05-18T11:12:10.690Z,26.30
2019-05-18T11:14:40.341Z,26.50
2019-05-18T11:17:09.749Z,26.60
2019-05-18T11:19:38.895Z,26.40
2019-05-18T11:22:08.035Z,26.10
2019-05-18T11:24:37.553Z,25.90
2019-05-18T11:27:06.643Z,25.90
2019-05-18T11:29:35.737Z,26.00
2019-05-18T11:32:04.878Z,26.00
2019-05-18T11:34:34.325Z,26.00
2019-05-18T11:37:03.766Z,25.80
2019-05-18T11:39:33.638Z,25.60
2019-05-18T11:42:02.827Z,25.60
2019-05-18T11:44:31.972Z,25.60
2019-05-18T11:47:01.040Z,25.60
2019-05-18T11:49:30.462Z,25.70
2019-05-18T11:51:59.568Z,25.60
2019-05-18T11:54:28.966Z,25.60
2019-05-18T11:56:58.460Z,25.30
2019-05-18T11:59:27.962Z,25.10
2019-05-18T12:01:57.062Z,24.80
2019-05-18T12:04:26.192Z,24.40
2019-05-18T12:06:55.325Z,24.30
2019-05-18T12:09:24.402Z,24.40
2019-05-18T12:11:53.582Z,24.50
2019-05-18T12:14:23.022Z,24.70
2019-05-18T12:16:52.472Z,24.90
2019-05-18T12:19:21.815Z,25.00
2019-05-18T12:21:51.183Z,24.90
2019-05-18T12:24:34.657Z,24.80
2019-05-18T12:27:03.842Z,24.90
2019-05-18T12:29:32.943Z,24.90
2019-05-18T12:32:02.034Z,25.00
2019-05-18T12:34:31.117Z,25.10
2019-05-18T12:37:00.597Z,25.20
2019-05-18T12:39:30.172Z,25.20
2019-05-18T12:41:59.969Z,25.20
2019-05-18T12:44:29.737Z,25.10
2019-05-18T12:46:58.877Z,25.10
2019-05-18T12:49:28.033Z,25.10
2019-05-18T12:51:57.135Z,25.10
2019-05-18T12:54:44.117Z,25.20
2019-05-18T12:57:00.918Z,25.30
2019-05-18T12:59:30.323Z,25.30
2019-05-18T13:02:00.435Z,25.20
2019-05-18T13:04:29.858Z,24.90
2019-05-18T13:06:59.322Z,24.70
2019-05-18T13:09:28.400Z,24.50
2019-05-18T13:11:57.526Z,24.30
2019-05-18T13:14:26.612Z,24.30
2019-05-18T13:16:55.739Z,24.40
2019-05-18T13:19:24.827Z,24.60
2019-05-18T13:21:54.293Z,24.80
2019-05-18T13:24:23.755Z,25.00
2019-05-18T13:26:53.482Z,25.10
2019-05-18T13:29:22.702Z,25.00
2019-05-18T13:31:52.162Z,24.80
2019-05-18T13:34:21.255Z,24.60
2019-05-18T13:36:50.648Z,24.40
2019-05-18T13:39:19.719Z,24.30
2019-05-18T13:41:49.264Z,24.30
2019-05-18T13:44:18.351Z,24.20
2019-05-18T13:46:47.432Z,24.20
2019-05-18T13:49:16.521Z,24.30
2019-05-18T13:51:46.361Z,24.40
2019-05-18T13:54:15.767Z,24.50
2019-05-18T13:56:45.177Z,24.40
2019-05-18T13:59:14.276Z,24.40
2019-05-18T14:01:43.354Z,24.40
2019-05-18T14:04:12.457Z,24.30
2019-05-18T14:06:42.459Z,24.20
2019-05-18T14:09:12.132Z,24.00
2019-05-18T14:11:41.564Z,23.80
2019-05-18T14:14:10.711Z,23.70
2019-05-18T14:16:39.816Z,23.50
2019-05-18T14:19:09.182Z,23.50
2019-05-18T14:21:38.245Z,23.60
2019-05-18T14:24:07.984Z,23.60
2019-05-18T14:26:37.371Z,23.60
2019-05-18T14:29:06.804Z,23.60
2019-05-18T14:31:36.202Z,23.60
2019-05-18T14:34:09.468Z,23.70
2019-05-18T14:36:38.609Z,23.60
2019-05-18T14:39:08.093Z,23.50
2019-05-18T14:41:37.924Z,23.50
2019-05-18T14:44:07.019Z,23.50
2019-05-18T14:46:37.012Z,23.40
2019-05-18T14:49:06.210Z,23.40
2019-05-18T14:51:35.271Z,23.40
2019-05-18T14:54:04.383Z,23.40
2019-05-18T14:56:33.468Z,23.40
2019-05-18T14:59:02.549Z,23.40
2019-05-18T15:01:32.006Z,23.40
2019-05-18T15:04:01.142Z,23.40
2019-05-18T15:06:31.195Z,23.50
2019-05-18T15:09:00.296Z,23.50
2019-05-18T15:11:30.014Z,23.50
2019-05-18T15:13:59.394Z,23.50
2019-05-18T15:16:28.515Z,23.50
2019-05-18T15:18:57.993Z,23.50
2019-05-18T15:21:27.420Z,23.50
2019-05-18T15:23:56.506Z,23.40
2019-05-18T15:26:25.924Z,23.30
2019-05-18T15:28:55.013Z,23.30
2019-05-18T15:31:25.819Z,23.20
2019-05-18T15:33:55.615Z,23.20
2019-05-18T15:36:24.688Z,23.20
2019-05-18T15:39:00.270Z,23.10
2019-05-18T15:41:29.442Z,23.10
2019-05-18T15:43:58.618Z,23.10
2019-05-18T15:46:27.997Z,23.10
2019-05-18T15:48:57.199Z,23.10
2019-05-18T15:51:26.840Z,23.10
2019-05-18T15:53:56.366Z,23.10
2019-05-18T15:56:31.876Z,23.10
2019-05-18T15:59:01.023Z,23.10
2019-05-18T16:01:30.175Z,23.10
2019-05-18T16:03:59.280Z,23.00
2019-05-18T16:06:28.400Z,23.00
2019-05-18T16:08:57.451Z,23.00
2019-05-18T16:11:26.615Z,22.90
2019-05-18T16:13:55.671Z,23.00
2019-05-18T16:16:24.831Z,22.90
2019-05-18T16:18:53.902Z,22.90
2019-05-18T16:21:23.093Z,22.90
2019-05-18T16:23:52.546Z,22.90
2019-05-18T16:26:30.959Z,23.00
2019-05-18T16:29:00.366Z,23.00
2019-05-18T16:31:29.447Z,23.00
2019-05-18T16:34:04.757Z,23.00
2019-05-18T16:36:35.642Z,23.10
2019-05-18T16:39:07.838Z,23.00
2019-05-18T16:41:37.218Z,23.00
2019-05-18T16:44:07.635Z,23.10
2019-05-18T16:46:37.416Z,23.10
2019-05-18T16:49:06.855Z,23.00
2019-05-18T16:51:35.955Z,23.00
2019-05-18T16:54:05.323Z,23.00
2019-05-18T16:56:35.446Z,22.90
2019-05-18T16:59:04.622Z,22.90
2019-05-18T17:01:34.123Z,22.80
2019-05-18T17:04:03.299Z,22.70
2019-05-18T17:06:32.388Z,22.70
2019-05-18T17:09:01.792Z,22.60
2019-05-18T17:11:32.051Z,22.60
2019-05-18T17:14:01.683Z,22.60
2019-05-18T17:16:31.412Z,22.60
2019-05-18T17:19:00.653Z,22.60
2019-05-18T17:21:29.848Z,22.50
2019-05-18T17:23:59.299Z,22.40
2019-05-18T17:26:29.452Z,22.40
2019-05-18T17:28:58.544Z,22.40
2019-05-18T17:31:27.647Z,22.30
2019-05-18T17:33:58.887Z,22.30
2019-05-18T17:36:28.301Z,22.30
2019-05-18T17:38:57.696Z,22.20
2019-05-18T17:41:35.602Z,22.10
2019-05-18T17:44:04.767Z,22.10
2019-05-18T17:46:40.206Z,22.00
2019-05-18T17:49:25.973Z,22.00
2019-05-18T17:51:41.501Z,21.90
2019-05-18T17:54:12.937Z,21.90
2019-05-18T17:56:42.487Z,21.90
2019-05-18T17:59:11.934Z,21.80
2019-05-18T18:01:41.131Z,21.80
2019-05-18T18:04:10.264Z,21.70
2019-05-18T18:06:40.383Z,21.70
2019-05-18T18:09:10.190Z,21.60
2019-05-18T18:11:39.393Z,21.50
2019-05-18T18:14:08.776Z,21.50
2019-05-18T18:16:37.881Z,21.40
2019-05-18T18:19:07.308Z,21.40
2019-05-18T18:21:36.414Z,21.30
2019-05-18T18:24:05.614Z,21.20
2019-05-18T18:26:35.099Z,21.20
2019-05-18T18:29:04.438Z,21.20
2019-05-18T18:31:34.977Z,21.10
2019-05-18T18:34:04.445Z,21.00
2019-05-18T18:36:33.529Z,21.00
2019-05-18T18:39:02.810Z,20.90
2019-05-18T18:41:32.081Z,20.80
2019-05-18T18:44:01.218Z,20.70
2019-05-18T18:46:30.315Z,20.70
2019-05-18T18:48:59.426Z,20.70
2019-05-18T18:51:32.960Z,20.60
2019-05-18T18:54:02.576Z,20.50
2019-05-18T18:56:32.193Z,20.40
2019-05-18T18:59:01.698Z,20.40
2019-05-18T19:01:30.879Z,20.30
2019-05-18T19:04:00.094Z,20.30
2019-05-18T19:06:30.238Z,20.20
2019-05-18T19:09:04.708Z,20.20
2019-05-18T19:11:33.871Z,20.10
2019-05-18T19:14:04.271Z,20.10
2019-05-18T19:16:33.844Z,20.10
2019-05-18T19:19:03.046Z,20.10
2019-05-18T19:21:32.232Z,20.00
2019-05-18T19:24:01.503Z,20.00
2019-05-18T19:26:31.395Z,20.00
2019-05-18T19:29:01.547Z,19.90
2019-05-18T19:31:32.785Z,19.90
2019-05-18T19:34:02.220Z,19.90
2019-05-18T19:36:31.662Z,19.80
2019-05-18T19:39:01.219Z,19.80
2019-05-18T19:41:30.432Z,19.70
2019-05-18T19:43:59.892Z,19.70
2019-05-18T19:46:29.041Z,19.70
2019-05-18T19:48:59.238Z,19.60
2019-05-18T19:51:28.485Z,19.50
2019-05-18T19:53:58.188Z,19.50
2019-05-18T19:56:27.308Z,19.50
2019-05-18T19:58:57.621Z,19.30
2019-05-18T20:01:26.763Z,19.30
2019-05-18T20:03:59.935Z,19.30
2019-05-18T20:06:29.063Z,19.20
2019-05-18T20:08:58.956Z,19.20
2019-05-18T20:11:28.199Z,19.20
2019-05-18T20:13:57.712Z,19.10
2019-05-18T20:16:26.886Z,19.00
2019-05-18T20:18:56.462Z,18.90
2019-05-18T20:21:26.270Z,18.80
2019-05-18T20:23:55.423Z,18.80
2019-05-18T20:26:24.857Z,18.70
2019-05-18T20:28:56.720Z,18.60
2019-05-18T20:31:27.040Z,18.60
2019-05-18T20:33:56.532Z,18.50
2019-05-18T20:36:26.278Z,18.40
2019-05-18T20:38:55.522Z,18.20
2019-05-18T20:41:25.682Z,18.00
2019-05-18T20:43:58.923Z,18.00
2019-05-18T20:46:32.447Z,18.00
2019-05-18T20:49:01.576Z,18.00
2019-05-18T20:51:30.791Z,17.90
2019-05-18T20:54:02.018Z,17.90
2019-05-18T20:56:32.214Z,17.80
2019-05-18T20:59:01.646Z,17.80
2019-05-18T21:01:32.171Z,17.70
2019-05-18T21:04:01.600Z,17.70
2019-05-18T21:06:30.701Z,17.70
2019-05-18T21:09:00.294Z,17.70
2019-05-18T21:11:30.095Z,17.70
2019-05-18T21:13:59.498Z,17.70
2019-05-18T21:16:30.020Z,17.70
2019-05-18T21:18:59.399Z,17.60
2019-05-18T21:21:28.979Z,17.60
2019-05-18T21:23:58.145Z,17.50
2019-05-18T21:26:27.531Z,17.50
2019-05-18T21:29:00.764Z,17.50
2019-05-18T21:31:27.662Z,17.50
2019-05-18T21:33:57.083Z,17.50
2019-05-18T21:36:26.187Z,17.40
2019-05-18T21:38:55.994Z,17.40
2019-05-18T21:41:26.402Z,17.40
2019-05-18T21:43:55.974Z,17.30
2019-05-18T21:46:26.176Z,17.20
2019-05-18T21:48:55.691Z,17.20
2019-05-18T21:51:25.349Z,17.10
2019-05-18T21:53:54.879Z,17.20
2019-05-18T21:56:24.005Z,17.20
2019-05-18T21:58:53.831Z,17.20
2019-05-18T22:01:23.318Z,17.20
2019-05-18T22:03:52.590Z,17.10
2019-05-18T22:06:21.703Z,17.10
2019-05-18T22:08:51.470Z,17.10
2019-05-18T22:11:21.085Z,17.10
2019-05-18T22:13:50.641Z,17.10
2019-05-18T22:16:19.846Z,17.00
2019-05-18T22:18:49.010Z,17.00
2019-05-18T22:21:19.239Z,17.00
2019-05-18T22:23:49.419Z,16.90
2019-05-18T22:26:18.839Z,16.90
2019-05-18T22:28:48.325Z,16.90
2019-05-18T22:31:19.542Z,16.90
2019-05-18T22:33:48.695Z,16.90
2019-05-18T22:36:17.821Z,16.90
2019-05-18T22:38:47.251Z,16.90
2019-05-18T22:41:16.762Z,16.90
2019-05-18T22:43:45.904Z,16.90
2019-05-18T22:46:15.079Z,16.80
2019-05-18T22:48:44.265Z,16.80
2019-05-18T22:51:14.041Z,16.70
2019-05-18T22:53:46.364Z,16.60
2019-05-18T22:56:16.169Z,16.60
2019-05-18T22:58:47.391Z,16.60
2019-05-18T23:01:17.465Z,16.60
2019-05-18T23:03:46.572Z,16.50
2019-05-18T23:06:16.730Z,16.50
2019-05-18T23:08:46.305Z,16.50
2019-05-18T23:11:16.296Z,16.40
2019-05-18T23:13:45.454Z,16.40
2019-05-18T23:16:14.634Z,16.30
2019-05-18T23:18:55.936Z,16.30
2019-05-18T23:21:14.939Z,16.30
2019-05-18T23:23:44.061Z,16.30
2019-05-18T23:26:13.260Z,16.30
2019-05-18T23:28:42.549Z,16.20
2019-05-18T23:31:11.670Z,16.10
2019-05-18T23:33:40.835Z,16.10
2019-05-18T23:36:09.954Z,16.10
2019-05-18T23:38:39.126Z,16.10
2019-05-18T23:41:09.142Z,16.00
2019-05-18T23:43:38.269Z,16.00
2019-05-18T23:46:09.029Z,16.00
2019-05-18T23:48:38.215Z,16.00
2019-05-18T23:51:08.243Z,15.90
2019-05-18T23:53:38.208Z,15.90
2019-05-18T23:56:07.700Z,15.80
2019-05-18T23:58:37.869Z,15.80
